Terminal Aerodrome Forecast
Issued by NWS

Home | Current Version | Previous Version | Text Only | Print | Product List | Glossary Off
Versions: 1 2 3 4 5 6 7 8 9 10 11 12 13

812
FTUS43 KIWX 252339
TAFSBN
TAF
KSBN 252339Z 2600/2624 15012KT P6SM SCT150 BKN250
     FM261300 17014G22KT P6SM SCT030 BKN150
     FM262200 19014G24KT P6SM BKN035=

USA.gov is the U.S. government's official web portal to all federal, state and local government web resources and services.